Time;durP1;ratioP1;P1;durP2;ratioP2;P2;SDS_P1;SDS_P2;PMS_P1;PMS_P2;Temp;Humidity;BMP_temperature;BMP_pressure;BME280_temperature;BME280_humidity;BME280_pressure;Samples;Min_cycle;Max_cycle;Signal;HPM_P1;HPM_P2
2023/12/21 00:00:12;;;;;;;;;;;;;;;;;;6232506;23;19923;-94
2023/12/21 00:02:40;;;;;;;;;;;;;;;;;;6231399;23;19914;-93
2023/12/21 00:05:07;;;;;;;;;;;;;;;;;;6230905;23;20218;-93
2023/12/21 00:07:33;;;;;;;;;;;;;;;;;;6232797;23;19961;-94
2023/12/21 00:09:58;;;;;;;;;;;;;;;;;;6231996;23;19911;-94
2023/12/21 00:12:33;;;;;;;;;;;;;;;;;;6231482;23;19907;-94
2023/12/21 00:15:09;;;;;;;;;;;;;;;;;;;;;
2023/12/21 00:17:36;;;;;;;;;;;;;;;;;;6257530;23;19942;-94
2023/12/21 00:20:02;;;;;;;;;;;;;;;;;;6231125;23;19903;-93
2023/12/21 00:22:28;;;;;;;;;;;;;;;;;;6228605;23;19907;-93
2023/12/21 00:25:10;;;;;;;;;;;;;;;;;;;;;
2023/12/21 00:27:38;;;;;;;;;;;;;;;;;;6259500;23;19919;-94
2023/12/21 00:30:04;;;;;;;;;;;;;;;;;;6232893;23;19908;-93
2023/12/21 00:32:33;;;;;;;;;;;;;;;;;;6230200;23;19985;-94
2023/12/21 00:34:59;;;;;;;;;;;;;;;;;;6230649;23;19979;-95
2023/12/21 00:37:35;;;;;;;;;;;;;;;;;;6229889;23;19926;-95
2023/12/21 00:40:02;;;;;;;;;;;;;;;;;;6230233;23;19904;-94
2023/12/21 00:42:28;;;;;;;;;;;;;;;;;;6230160;23;19934;-94
2023/12/21 00:44:54;;;;;;;;;;;;;;;;;;6230119;23;19908;-94
2023/12/21 00:47:25;;;;;;;;;;;;;;;;;;6255377;23;19903;-96
2023/12/21 00:49:51;;;;;;;;;;;;;;;;;;6231245;23;19916;-94
2023/12/21 00:52:21;;;;;;;;;;;;;;;;;;6230448;23;20004;-93
2023/12/21 00:55:08;;;;;;;;;;;;;;;;;;6228431;23;19978;-93
2023/12/21 00:57:35;;;;;;;;;;;;;;;;;;6254982;23;19904;-93
2023/12/21 01:00:02;;;;;;;;;;;;;;;;;;6228672;23;19903;-94
2023/12/21 01:02:29;;;;;;;;;;;;;;;;;;6229250;23;19947;-94
2023/12/21 01:04:57;;;;;;;;;;;;;;;;;;6229240;23;19907;-93
2023/12/21 01:07:24;;;;;;;;;;;;;;;;;;6229493;23;19915;-94
2023/12/21 01:09:53;;;;;;;;;;;;;;;;;;6230483;23;20321;-93
2023/12/21 01:12:32;;;;;;;;;;;;;;;;;;;;;
2023/12/21 01:14:59;;;;;;;;;;;;;;;;;;6253459;23;19938;-93
2023/12/21 01:17:25;;;;;;;;;;;;;;;;;;6229746;23;19907;-94
2023/12/21 01:19:51;;;;;;;;;;;;;;;;;;6229336;23;19907;-94
2023/12/21 01:22:17;;;;;;;;;;;;;;;;;;6228543;23;19907;-94
2023/12/21 01:24:43;;;;;;;;;;;;;;;;;;6229168;23;19904;-93
2023/12/21 01:27:09;;;;;;;;;;;;;;;;;;6226680;23;19911;-95
2023/12/21 01:29:35;;;;;;;;;;;;;;;;;;6228451;23;19957;-94
2023/12/21 01:32:01;;;;;;;;;;;;;;;;;;6227130;23;19916;-94
2023/12/21 01:34:27;;;;;;;;;;;;;;;;;;6229864;23;19910;-94
2023/12/21 01:36:53;;;;;;;;;;;;;;;;;;6232193;23;19939;-96
2023/12/21 01:39:20;;;;;;;;;;;;;;;;;;6260251;23;19951;-94
2023/12/21 01:41:46;;;;;;;;;;;;;;;;;;6232178;23;19904;-96
2023/12/21 01:44:12;;;;;;;;;;;;;;;;;;6233135;23;20332;-96
2023/12/21 01:46:41;;;;;;;;;;;;;;;;;;6235221;23;19904;-95
2023/12/21 01:49:09;;;;;;;;;;;;;;;;;;6234020;23;19912;-95
2023/12/21 01:51:35;;;;;;;;;;;;;;;;;;6235106;23;19947;-95
2023/12/21 01:54:03;;;;;;;;;;;;;;;;;;6260363;23;19904;-95
2023/12/21 01:56:31;;;;;;;;;;;;;;;;;;6234901;23;19908;-96
2023/12/21 01:58:58;;;;;;;;;;;;;;;;;;6235714;23;19904;-96
2023/12/21 02:01:24;;;;;;;;;;;;;;;;;;6234827;23;19911;-96
2023/12/21 02:03:50;;;;;;;;;;;;;;;;;;6236758;23;19927;-96
2023/12/21 02:06:16;;;;;;;;;;;;;;;;;;6236069;23;19904;-95
2023/12/21 02:08:43;;;;;;;;;;;;;;;;;;6232376;23;19911;-95
2023/12/21 02:11:09;;;;;;;;;;;;;;;;;;6232960;23;19950;-95
2023/12/21 02:13:35;;;;;;;;;;;;;;;;;;6232320;23;19907;-95
2023/12/21 02:16:06;;;;;;;;;;;;;;;;;;6260087;23;19903;-95
2023/12/21 02:18:32;;;;;;;;;;;;;;;;;;6234824;23;19910;-94
2023/12/21 02:21:02;;;;;;;;;;;;;;;;;;6233717;23;19908;-95
2023/12/21 02:23:28;;;;;;;;;;;;;;;;;;6231826;23;19951;-95
2023/12/21 02:25:54;;;;;;;;;;;;;;;;;;6234630;23;19904;-95
2023/12/21 02:28:20;;;;;;;;;;;;;;;;;;6233867;23;19926;-95
2023/12/21 02:30:49;;;;;;;;;;;;;;;;;;6234966;23;19908;-94
2023/12/21 02:33:15;;;;;;;;;;;;;;;;;;6233766;23;19953;-95
2023/12/21 02:35:44;;;;;;;;;;;;;;;;;;6234885;23;19908;-95
2023/12/21 02:38:10;;;;;;;;;;;;;;;;;;6235549;23;19907;-95
2023/12/21 02:40:36;;;;;;;;;;;;;;;;;;6239093;23;19964;-93
2023/12/21 02:43:02;;;;;;;;;;;;;;;;;;6240005;23;19908;-93
2023/12/21 02:45:28;;;;;;;;;;;;;;;;;;6235470;23;19926;-95
2023/12/21 02:47:54;;;;;;;;;;;;;;;;;;6234117;23;19904;-94
2023/12/21 02:50:20;;;;;;;;;;;;;;;;;;6243979;23;19922;-95
2023/12/21 02:52:49;;;;;;;;;;;;;;;;;;6244362;23;19903;-95
2023/12/21 02:55:15;;;;;;;;;;;;;;;;;;6244580;23;19931;-95
2023/12/21 02:57:41;;;;;;;;;;;;;;;;;;6244587;23;19914;-95
2023/12/21 03:00:07;;;;;;;;;;;;;;;;;;6242217;23;19911;-95
2023/12/21 03:05:23;;;;;;;;;;;;;;;;;;6257536;23;19903;-96
2023/12/21 03:07:53;;;;;;;;;;;;;;;;;;6237803;23;20284;-96
2023/12/21 03:10:22;;;;;;;;;;;;;;;;;;6236427;23;19915;-96
2023/12/21 03:12:48;;;;;;;;;;;;;;;;;;6236940;23;19915;-95
2023/12/21 03:15:17;;;;;;;;;;;;;;;;;;6232460;23;20367;-96
2023/12/21 03:17:43;;;;;;;;;;;;;;;;;;6233080;23;19907;-96
2023/12/21 03:20:12;;;;;;;;;;;;;;;;;;6233898;23;19974;-95
2023/12/21 03:22:38;;;;;;;;;;;;;;;;;;6231851;23;19912;-94
2023/12/21 03:25:04;;;;;;;;;;;;;;;;;;6231181;23;19904;-95
2023/12/21 03:27:30;;;;;;;;;;;;;;;;;;6233051;23;19986;-95
2023/12/21 03:30:05;;;;;;;;;;;;;;;;;;6233486;23;19914;-95
2023/12/21 03:32:36;;;;;;;;;;;;;;;;;;6233491;23;19912;-95
2023/12/21 03:35:03;;;;;;;;;;;;;;;;;;6232267;22;19958;-95
2023/12/21 03:37:31;;;;;;;;;;;;;;;;;;6257315;23;19944;-95
2023/12/21 03:39:57;;;;;;;;;;;;;;;;;;6256371;23;19903;-95
2023/12/21 03:42:23;;;;;;;;;;;;;;;;;;6230250;23;19911;-96
2023/12/21 03:44:53;;;;;;;;;;;;;;;;;;6257229;23;19904;-95
2023/12/21 03:47:25;;;;;;;;;;;;;;;;;;6231458;23;19912;-95
2023/12/21 03:49:52;;;;;;;;;;;;;;;;;;6230918;23;19912;-95
2023/12/21 03:52:24;;;;;;;;;;;;;;;;;;6231723;23;20040;-95
2023/12/21 03:54:50;;;;;;;;;;;;;;;;;;6231895;23;19910;-96
2023/12/21 03:57:16;;;;;;;;;;;;;;;;;;6230918;23;19908;-94
2023/12/21 03:59:43;;;;;;;;;;;;;;;;;;6230682;23;19904;-95
2023/12/21 04:02:09;;;;;;;;;;;;;;;;;;6230660;23;19938;-94
2023/12/21 04:04:35;;;;;;;;;;;;;;;;;;6230144;23;19904;-94
2023/12/21 04:07:10;;;;;;;;;;;;;;;;;;6230331;23;19909;-95
2023/12/21 04:09:39;;;;;;;;;;;;;;;;;;6229736;23;19907;-95
2023/12/21 04:12:28;;;;;;;;;;;;;;;;;;6254247;23;19911;-95
2023/12/21 04:14:54;;;;;;;;;;;;;;;;;;6230783;23;19904;-95
2023/12/21 04:17:23;;;;;;;;;;;;;;;;;;6231882;23;19935;-94
2023/12/21 04:19:48;;;;;;;;;;;;;;;;;;6231474;23;19908;-93
2023/12/21 04:22:15;;;;;;;;;;;;;;;;;;6230240;23;19983;-95
2023/12/21 04:24:41;;;;;;;;;;;;;;;;;;6234118;23;19958;-95
2023/12/21 04:27:07;;;;;;;;;;;;;;;;;;6230882;23;19907;-94
2023/12/21 04:29:33;;;;;;;;;;;;;;;;;;6228973;23;19922;-95
2023/12/21 04:31:59;;;;;;;;;;;;;;;;;;6229602;23;19919;-94
2023/12/21 04:34:25;;;;;;;;;;;;;;;;;;6230860;23;19907;-94
2023/12/21 04:36:51;;;;;;;;;;;;;;;;;;6230647;23;19904;-94
2023/12/21 04:39:17;;;;;;;;;;;;;;;;;;6229942;23;20037;-95
2023/12/21 04:41:43;;;;;;;;;;;;;;;;;;6229888;23;19954;-95
2023/12/21 04:44:09;;;;;;;;;;;;;;;;;;6230224;23;19935;-94
2023/12/21 04:46:35;;;;;;;;;;;;;;;;;;6229951;23;19904;-94
2023/12/21 04:49:01;;;;;;;;;;;;;;;;;;6229668;23;20353;-95
2023/12/21 04:51:30;;;;;;;;;;;;;;;;;;6230108;23;19910;-95
2023/12/21 04:53:56;;;;;;;;;;;;;;;;;;6230331;23;19982;-94
2023/12/21 04:56:22;;;;;;;;;;;;;;;;;;6232836;23;19904;-95
2023/12/21 04:58:48;;;;;;;;;;;;;;;;;;6228466;23;19910;-94
2023/12/21 05:01:14;;;;;;;;;;;;;;;;;;6227581;23;19907;-94
2023/12/21 05:03:40;;;;;;;;;;;;;;;;;;6227709;23;19942;-94
2023/12/21 05:06:17;;;;;;;;;;;;;;;;;;6229254;23;19910;-94
2023/12/21 05:08:46;;;;;;;;;;;;;;;;;;6231253;23;19961;-94
2023/12/21 05:11:12;;;;;;;;;;;;;;;;;;6231655;23;20340;-96
2023/12/21 05:13:38;;;;;;;;;;;;;;;;;;6228570;23;19908;-96
2023/12/21 05:16:04;;;;;;;;;;;;;;;;;;6227393;23;19969;-96
2023/12/21 05:18:30;;;;;;;;;;;;;;;;;;6228427;23;19903;-96
2023/12/21 05:20:59;;;;;;;;;;;;;;;;;;6228021;23;19910;-95
2023/12/21 05:23:25;;;;;;;;;;;;;;;;;;6227933;23;20348;-95
2023/12/21 05:25:51;;;;;;;;;;;;;;;;;;6229186;23;19908;-95
2023/12/21 05:28:17;;;;;;;;;;;;;;;;;;6229250;23;19904;-96
2023/12/21 05:30:45;;;;;;;;;;;;;;;;;;6231554;23;19910;-94
2023/12/21 05:33:11;;;;;;;;;;;;;;;;;;6231944;23;19911;-94
2023/12/21 05:35:40;;;;;;;;;;;;;;;;;;6232834;23;19930;-96
2023/12/21 05:38:06;;;;;;;;;;;;;;;;;;6234621;23;19923;-96
2023/12/21 05:40:35;;;;;;;;;;;;;;;;;;6232296;23;19914;-96
2023/12/21 05:43:25;;;;;;;;;;;;;;;;;;6258913;23;19930;-95
2023/12/21 05:45:51;;;;;;;;;;;;;;;;;;6235574;23;19947;-96
2023/12/21 05:48:17;;;;;;;;;;;;;;;;;;6238282;23;19903;-96
2023/12/21 05:50:49;;;;;;;;;;;;;;;;;;6236914;23;19903;-96
2023/12/21 05:53:17;;;;;;;;;;;;;;;;;;6234967;23;19904;-96
2023/12/21 05:55:52;;;;;;;;;;;;;;;;;;6241270;23;19887;-96
2023/12/21 05:58:33;;;;;;;;;;;;;;;;;;6262106;23;19908;-96
2023/12/21 06:01:00;;;;;;;;;;;;;;;;;;6235511;23;19908;-96
2023/12/21 06:03:29;;;;;;;;;;;;;;;;;;6235905;23;19911;-96
2023/12/21 06:05:55;;;;;;;;;;;;;;;;;;6237573;23;19947;-96
2023/12/21 06:08:31;;;;;;;;;;;;;;;;;;;;;
2023/12/21 06:11:07;;;;;;;;;;;;;;;;;;6260547;23;19911;-96
2023/12/21 06:13:36;;;;;;;;;;;;;;;;;;6237658;23;19911;-96
2023/12/21 06:16:02;;;;;;;;;;;;;;;;;;6238322;23;19914;-96
2023/12/21 06:18:28;;;;;;;;;;;;;;;;;;6236181;23;19904;-96
2023/12/21 06:20:54;;;;;;;;;;;;;;;;;;6234318;23;19910;-96
2023/12/21 06:23:20;;;;;;;;;;;;;;;;;;6197988;23;19904;-96
2023/12/21 06:25:46;;;;;;;;;;;;;;;;;;6225155;23;19904;-96
2023/12/21 06:28:19;;;;;;;;;;;;;;;;;;6226342;23;19935;-96
2023/12/21 06:30:46;;;;;;;;;;;;;;;;;;6233158;23;19908;-96
2023/12/21 06:33:16;;;;;;;;;;;;;;;;;;6207078;23;19912;-96
2023/12/21 06:35:44;;;;;;;;;;;;;;;;;;6230802;23;19893;-96
2023/12/21 06:38:10;;;;;;;;;;;;;;;;;;6227727;23;19925;-96
2023/12/21 06:40:36;;;;;;;;;;;;;;;;;;6226670;23;19932;-96
2023/12/21 06:43:12;;;;;;;;;;;;;;;;;;6226490;23;20334;-96
2023/12/21 06:45:39;;;;;;;;;;;;;;;;;;6202426;23;20410;-96
2023/12/21 06:48:05;;;;;;;;;;;;;;;;;;6231386;23;19952;-96
2023/12/21 06:50:31;;;;;;;;;;;;;;;;;;6231899;23;19912;-96
2023/12/21 06:53:04;;;;;;;;;;;;;;;;;;6232658;23;19904;-96
2023/12/21 06:55:30;;;;;;;;;;;;;;;;;;6239701;23;19957;-92
2023/12/21 06:57:57;;;;;;;;;;;;;;;;;;6229605;23;19904;-94
2023/12/21 07:00:25;;;;;;;;;;;;;;;;;;6230328;23;19939;-93
2023/12/21 07:02:54;;;;;;;;;;;;;;;;;;6229463;23;19953;-94
2023/12/21 07:05:20;;;;;;;;;;;;;;;;;;6228317;23;19904;-92
2023/12/21 07:07:49;;;;;;;;;;;;;;;;;;6228309;23;19953;-92
2023/12/21 07:10:15;;;;;;;;;;;;;;;;;;6228674;23;19912;-93
2023/12/21 07:12:41;;;;;;;;;;;;;;;;;;6227352;23;19915;-93
2023/12/21 07:15:07;;;;;;;;;;;;;;;;;;6226459;23;19904;-93
2023/12/21 07:17:33;;;;;;;;;;;;;;;;;;6226118;23;19986;-92
2023/12/21 07:20:01;;;;;;;;;;;;;;;;;;6253209;23;19908;-92
2023/12/21 07:22:27;;;;;;;;;;;;;;;;;;6227670;23;19950;-93
2023/12/21 07:24:53;;;;;;;;;;;;;;;;;;6225748;23;19930;-93
2023/12/21 07:27:19;;;;;;;;;;;;;;;;;;6228824;23;20163;-92
2023/12/21 07:29:45;;;;;;;;;;;;;;;;;;6225276;23;19908;-93
2023/12/21 07:32:11;;;;;;;;;;;;;;;;;;6226585;23;20423;-94
2023/12/21 07:34:36;;;;;;;;;;;;;;;;;;6226341;23;19904;-93
2023/12/21 07:37:02;;;;;;;;;;;;;;;;;;6227788;23;19986;-94
2023/12/21 07:39:28;;;;;;;;;;;;;;;;;;6226100;23;19904;-93
2023/12/21 07:41:55;;;;;;;;;;;;;;;;;;6225467;23;19903;-93
2023/12/21 07:44:21;;;;;;;;;;;;;;;;;;6226457;23;19982;-94
2023/12/21 07:46:47;;;;;;;;;;;;;;;;;;6227380;23;20489;-93
2023/12/21 07:49:13;;;;;;;;;;;;;;;;;;6227239;23;19943;-94
2023/12/21 07:51:39;;;;;;;;;;;;;;;;;;6226686;23;19963;-94
2023/12/21 07:54:05;;;;;;;;;;;;;;;;;;6225491;23;19903;-93
2023/12/21 07:56:31;;;;;;;;;;;;;;;;;;6228182;23;19904;-95
2023/12/21 07:59:04;;;;;;;;;;;;;;;;;;6226122;23;20214;-93
2023/12/21 08:01:30;;;;;;;;;;;;;;;;;;6227540;23;19915;-93
2023/12/21 08:03:56;;;;;;;;;;;;;;;;;;6225897;23;19904;-93
2023/12/21 08:06:25;;;;;;;;;;;;;;;;;;6228714;23;19919;-95
2023/12/21 08:08:54;;;;;;;;;;;;;;;;;;6227110;23;19908;-95
2023/12/21 08:11:20;;;;;;;;;;;;;;;;;;6228396;23;19907;-95
2023/12/21 08:13:46;;;;;;;;;;;;;;;;;;6228042;23;19910;-96
2023/12/21 08:16:12;;;;;;;;;;;;;;;;;;6227201;23;19904;-96
2023/12/21 08:18:38;;;;;;;;;;;;;;;;;;6228522;23;20305;-95
2023/12/21 08:21:04;;;;;;;;;;;;;;;;;;6227452;23;20253;-94
2023/12/21 08:23:30;;;;;;;;;;;;;;;;;;6227457;23;19910;-96
2023/12/21 08:25:56;;;;;;;;;;;;;;;;;;6227405;23;19907;-96
2023/12/21 08:28:23;;;;;;;;;;;;;;;;;;6226592;23;19910;-96
2023/12/21 08:30:51;;;;;;;;;;;;;;;;;;6254772;23;19903;-95
2023/12/21 08:33:19;;;;;;;;;;;;;;;;;;6227519;23;19951;-96
2023/12/21 08:35:46;;;;;;;;;;;;;;;;;;6226838;23;19919;-95
2023/12/21 08:38:12;;;;;;;;;;;;;;;;;;6226972;23;19958;-96
2023/12/21 08:40:38;;;;;;;;;;;;;;;;;;6227338;23;19907;-96
2023/12/21 08:43:07;;;;;;;;;;;;;;;;;;6227054;23;20010;-96
2023/12/21 08:45:33;;;;;;;;;;;;;;;;;;6228619;23;20347;-96
2023/12/21 08:47:59;;;;;;;;;;;;;;;;;;6228362;23;19939;-95
2023/12/21 08:50:25;;;;;;;;;;;;;;;;;;6228995;23;20336;-95
2023/12/21 08:52:54;;;;;;;;;;;;;;;;;;6255165;23;20351;-96
2023/12/21 08:55:20;;;;;;;;;;;;;;;;;;6229246;23;19912;-95
2023/12/21 08:57:46;;;;;;;;;;;;;;;;;;6229481;23;19914;-95
2023/12/21 09:00:13;;;;;;;;;;;;;;;;;;6227129;23;19895;-96
2023/12/21 09:02:39;;;;;;;;;;;;;;;;;;6227741;23;19904;-94
2023/12/21 09:05:05;;;;;;;;;;;;;;;;;;6225066;23;19911;-96
2023/12/21 09:07:34;;;;;;;;;;;;;;;;;;6228019;23;19904;-96
2023/12/21 09:10:00;;;;;;;;;;;;;;;;;;6227427;23;19909;-95
2023/12/21 09:12:29;;;;;;;;;;;;;;;;;;6229493;23;19907;-96
2023/12/21 09:14:55;;;;;;;;;;;;;;;;;;6228361;23;20330;-95
2023/12/21 09:17:20;;;;;;;;;;;;;;;;;;6224852;23;19911;-94
2023/12/21 09:19:47;;;;;;;;;;;;;;;;;;6225393;23;19903;-94
2023/12/21 09:22:13;;;;;;;;;;;;;;;;;;6225961;23;19907;-93
2023/12/21 09:24:39;;;;;;;;;;;;;;;;;;6225349;23;19911;-93
2023/12/21 09:27:05;;;;;;;;;;;;;;;;;;6225648;23;19904;-94
2023/12/21 09:29:31;;;;;;;;;;;;;;;;;;6224503;23;19927;-94
2023/12/21 09:31:57;;;;;;;;;;;;;;;;;;6225135;23;19926;-93
2023/12/21 09:34:24;;;;;;;;;;;;;;;;;;6222757;23;19985;-94
2023/12/21 09:36:52;;;;;;;;;;;;;;;;;;6224473;23;19930;-94
2023/12/21 09:39:18;;;;;;;;;;;;;;;;;;6224779;23;19914;-94
2023/12/21 09:41:47;;;;;;;;;;;;;;;;;;6226539;23;19904;-93
2023/12/21 09:44:20;;;;;;;;;;;;;;;;;;6227380;23;19925;-94
2023/12/21 09:46:47;;;;;;;;;;;;;;;;;;6254937;23;20349;-94
2023/12/21 09:49:14;;;;;;;;;;;;;;;;;;6227500;23;19912;-95
2023/12/21 09:51:40;;;;;;;;;;;;;;;;;;6226725;23;19918;-93
2023/12/21 09:54:07;;;;;;;;;;;;;;;;;;6227335;23;19904;-95
2023/12/21 09:56:38;;;;;;;;;;;;;;;;;;6254137;23;20318;-94
2023/12/21 09:59:04;;;;;;;;;;;;;;;;;;6224554;23;20329;-93
2023/12/21 10:01:30;;;;;;;;;;;;;;;;;;6226134;23;19903;-94
2023/12/21 10:03:57;;;;;;;;;;;;;;;;;;6224645;23;19904;-94
2023/12/21 10:06:26;;;;;;;;;;;;;;;;;;6252758;23;19971;-95
2023/12/21 10:08:56;;;;;;;;;;;;;;;;;;6255050;23;19914;-93
2023/12/21 10:11:23;;;;;;;;;;;;;;;;;;6226243;23;19907;-94
2023/12/21 10:14:01;;;;;;;;;;;;;;;;;;6225636;23;19904;-93
2023/12/21 10:17:21;;;;;;;;;;;;;;;;;;;;;
2023/12/21 10:19:21;;;;;;;;;;;;;;;;;;6237336;23;19915;-95
2023/12/21 10:21:47;;;;;;;;;;;;;;;;;;6227772;23;19911;-95
2023/12/21 10:24:13;;;;;;;;;;;;;;;;;;6229943;23;19927;-95
2023/12/21 10:26:39;;;;;;;;;;;;;;;;;;6241530;23;19907;-96
2023/12/21 10:29:08;;;;;;;;;;;;;;;;;;6248345;23;19957;-96
2023/12/21 10:31:34;;;;;;;;;;;;;;;;;;6235541;23;19912;-96
2023/12/21 10:34:09;;;;;;;;;;;;;;;;;;6246899;23;19942;-96
2023/12/21 10:36:38;;;;;;;;;;;;;;;;;;6273533;22;19896;-96
2023/12/21 10:39:04;;;;;;;;;;;;;;;;;;6243160;23;19904;-96
2023/12/21 10:41:39;;;;;;;;;;;;;;;;;;6244337;23;19907;-96
2023/12/21 10:44:05;;;;;;;;;;;;;;;;;;6243092;23;19911;-96
2023/12/21 10:46:31;;;;;;;;;;;;;;;;;;6240264;23;19903;-96
2023/12/21 10:49:01;;;;;;;;;;;;;;;;;;6241424;23;20325;-96
2023/12/21 10:51:35;;;;;;;;;;;;;;;;;;6242265;23;19903;-96
2023/12/21 10:54:19;;;;;;;;;;;;;;;;;;6267177;23;19904;-96
2023/12/21 10:59:50;;;;;;;;;;;;;;;;;;;;;
2023/12/21 11:05:32;;;;;;;;;;;;;;;;;;6181262;23;19911;-96
2023/12/21 11:08:01;;;;;;;;;;;;;;;;;;6254663;23;19911;-96
2023/12/21 11:10:27;;;;;;;;;;;;;;;;;;6230884;23;19908;-96
2023/12/21 11:12:53;;;;;;;;;;;;;;;;;;6232444;23;19930;-96
2023/12/21 11:15:19;;;;;;;;;;;;;;;;;;6235310;23;19908;-96
2023/12/21 11:17:55;;;;;;;;;;;;;;;;;;;;;
2023/12/21 11:20:25;;;;;;;;;;;;;;;;;;6271238;22;19895;-96
2023/12/21 11:22:57;;;;;;;;;;;;;;;;;;6248259;22;19888;-96
2023/12/21 11:25:44;;;;;;;;;;;;;;;;;;;;;
2023/12/21 11:38:56;;;;;;;;;;;;;;;;;;6319742;22;19926;-96
2023/12/21 11:41:24;;;;;;;;;;;;;;;;;;6289655;22;19911;-95
2023/12/21 11:43:50;;;;;;;;;;;;;;;;;;6292718;22;19907;-96
2023/12/21 11:46:18;;;;;;;;;;;;;;;;;;6296854;22;19899;-95
2023/12/21 11:51:40;;;;;;;;;;;;;;;;;;6230086;22;19927;-91
2023/12/21 11:54:06;;;;;;;;;;;;;;;;;;6247519;22;19910;-91
2023/12/21 11:56:32;;;;;;;;;;;;;;;;;;6248308;22;19925;-90
2023/12/21 11:58:58;;;;;;;;;;;;;;;;;;6248004;22;20224;-91
2023/12/21 12:01:25;;;;;;;;;;;;;;;;;;6249592;22;19915;-90
2023/12/21 12:03:52;;;;;;;;;;;;;;;;;;6249374;22;19899;-90
2023/12/21 12:06:18;;;;;;;;;;;;;;;;;;6276103;22;20300;-90
2023/12/21 12:08:44;;;;;;;;;;;;;;;;;;6246401;22;19912;-90
2023/12/21 12:11:10;;;;;;;;;;;;;;;;;;6248592;22;19950;-90
2023/12/21 12:13:36;;;;;;;;;;;;;;;;;;6248401;22;19918;-91
2023/12/21 12:16:02;;;;;;;;;;;;;;;;;;6276682;22;19930;-90
2023/12/21 12:18:28;;;;;;;;;;;;;;;;;;6248612;22;19908;-91
2023/12/21 12:21:00;;;;;;;;;;;;;;;;;;6248610;22;19904;-90
2023/12/21 12:23:26;;;;;;;;;;;;;;;;;;6246126;22;19908;-90
2023/12/21 12:25:52;;;;;;;;;;;;;;;;;;6247386;22;20374;-90
2023/12/21 12:28:18;;;;;;;;;;;;;;;;;;6249013;22;19930;-90
2023/12/21 12:30:44;;;;;;;;;;;;;;;;;;6246654;22;19911;-90
2023/12/21 12:33:10;;;;;;;;;;;;;;;;;;6249191;22;19929;-91
2023/12/21 12:35:36;;;;;;;;;;;;;;;;;;6248379;22;19903;-90
2023/12/21 12:38:02;;;;;;;;;;;;;;;;;;6249190;22;19950;-90
2023/12/21 12:40:28;;;;;;;;;;;;;;;;;;6246772;22;20228;-90
2023/12/21 12:42:54;;;;;;;;;;;;;;;;;;6247337;22;20340;-91
2023/12/21 12:45:21;;;;;;;;;;;;;;;;;;6277079;22;19914;-89
2023/12/21 12:47:47;;;;;;;;;;;;;;;;;;6248392;22;19918;-89
2023/12/21 12:50:13;;;;;;;;;;;;;;;;;;6245006;22;19912;-89
2023/12/21 12:52:39;;;;;;;;;;;;;;;;;;6192843;23;19920;-89
2023/12/21 12:55:06;;;;;;;;;;;;;;;;;;6185882;23;20464;-90
2023/12/21 12:57:32;;;;;;;;;;;;;;;;;;6186952;23;19904;-90
2023/12/21 12:59:59;;;;;;;;;;;;;;;;;;6186872;23;20199;-91
2023/12/21 13:02:25;;;;;;;;;;;;;;;;;;6188362;23;19939;-92
2023/12/21 13:04:51;;;;;;;;;;;;;;;;;;6187657;23;19904;-92
2023/12/21 13:07:18;;;;;;;;;;;;;;;;;;6188783;23;19914;-92
2023/12/21 13:09:44;;;;;;;;;;;;;;;;;;6185641;23;19908;-92
2023/12/21 13:12:10;;;;;;;;;;;;;;;;;;6188507;23;19904;-92
2023/12/21 13:14:36;;;;;;;;;;;;;;;;;;6187008;23;19908;-91
2023/12/21 13:17:04;;;;;;;;;;;;;;;;;;6187870;23;19904;-91
2023/12/21 13:19:30;;;;;;;;;;;;;;;;;;6188190;23;19939;-91
2023/12/21 13:21:56;;;;;;;;;;;;;;;;;;6188227;23;19950;-90
2023/12/21 13:24:24;;;;;;;;;;;;;;;;;;6187227;23;19904;-90
2023/12/21 13:26:51;;;;;;;;;;;;;;;;;;6186030;23;19904;-90
2023/12/21 13:29:18;;;;;;;;;;;;;;;;;;6187627;23;19918;-91
2023/12/21 13:31:44;;;;;;;;;;;;;;;;;;6187624;23;20015;-90
2023/12/21 13:34:19;;;;;;;;;;;;;;;;;;6187492;23;20237;-90
2023/12/21 13:36:45;;;;;;;;;;;;;;;;;;6186559;23;19908;-91
2023/12/21 13:39:11;;;;;;;;;;;;;;;;;;6187522;23;19911;-90
2023/12/21 13:41:44;;;;;;;;;;;;;;;;;;6186988;23;19907;-90
2023/12/21 13:44:10;;;;;;;;;;;;;;;;;;6187428;23;19911;-91
2023/12/21 13:46:36;;;;;;;;;;;;;;;;;;6187543;23;19930;-91
2023/12/21 13:49:02;;;;;;;;;;;;;;;;;;6188509;23;19912;-90
2023/12/21 13:51:29;;;;;;;;;;;;;;;;;;6198416;23;20036;-90
2023/12/21 13:53:55;;;;;;;;;;;;;;;;;;6220600;23;20425;-91
2023/12/21 13:56:21;;;;;;;;;;;;;;;;;;6237854;23;19911;-90
2023/12/21 13:58:47;;;;;;;;;;;;;;;;;;6219944;23;19907;-90
2023/12/21 14:01:13;;;;;;;;;;;;;;;;;;6220226;23;19926;-90
2023/12/21 14:03:39;;;;;;;;;;;;;;;;;;6219408;23;19907;-90
2023/12/21 14:06:05;;;;;;;;;;;;;;;;;;6220025;23;20218;-91
2023/12/21 14:08:32;;;;;;;;;;;;;;;;;;6219256;23;19903;-90
2023/12/21 14:10:58;;;;;;;;;;;;;;;;;;6220064;23;20348;-91
2023/12/21 14:13:24;;;;;;;;;;;;;;;;;;6219924;23;19979;-90
2023/12/21 14:15:50;;;;;;;;;;;;;;;;;;6219309;23;19907;-90
2023/12/21 14:18:17;;;;;;;;;;;;;;;;;;6219812;23;19915;-91
2023/12/21 14:20:47;;;;;;;;;;;;;;;;;;6219637;23;19927;-91
2023/12/21 14:23:18;;;;;;;;;;;;;;;;;;6219898;23;19903;-91
2023/12/21 14:25:44;;;;;;;;;;;;;;;;;;6219257;23;20356;-91
2023/12/21 14:28:10;;;;;;;;;;;;;;;;;;6218424;23;19907;-91
2023/12/21 14:30:36;;;;;;;;;;;;;;;;;;6219003;23;20300;-90
2023/12/21 14:33:03;;;;;;;;;;;;;;;;;;6219272;23;19915;-91
2023/12/21 14:35:29;;;;;;;;;;;;;;;;;;6218461;23;19986;-90
2023/12/21 14:37:55;;;;;;;;;;;;;;;;;;6218489;23;20006;-90
2023/12/21 14:40:21;;;;;;;;;;;;;;;;;;6218750;23;20659;-91
2023/12/21 14:42:47;;;;;;;;;;;;;;;;;;6216594;23;19915;-90
2023/12/21 14:45:13;;;;;;;;;;;;;;;;;;6219193;23;19908;-89
2023/12/21 14:47:39;;;;;;;;;;;;;;;;;;6219319;23;19910;-90
2023/12/21 14:50:08;;;;;;;;;;;;;;;;;;6218891;22;19922;-90
2023/12/21 14:52:34;;;;;;;;;;;;;;;;;;6196546;23;20357;-90
2023/12/21 14:55:00;;;;;;;;;;;;;;;;;;6189223;23;19927;-89
2023/12/21 14:57:26;;;;;;;;;;;;;;;;;;6186978;23;19914;-90
2023/12/21 14:59:52;;;;;;;;;;;;;;;;;;6187268;23;20662;-90
2023/12/21 15:02:18;;;;;;;;;;;;;;;;;;6187914;23;19962;-91
2023/12/21 15:04:44;;;;;;;;;;;;;;;;;;6187809;23;19908;-90
2023/12/21 15:07:10;;;;;;;;;;;;;;;;;;6188202;23;19919;-90
2023/12/21 15:09:36;;;;;;;;;;;;;;;;;;6187568;23;19912;-89
2023/12/21 15:12:03;;;;;;;;;;;;;;;;;;6186737;23;20230;-90
2023/12/21 15:14:29;;;;;;;;;;;;;;;;;;6186632;23;19920;-90
2023/12/21 15:16:57;;;;;;;;;;;;;;;;;;6188887;23;19907;-90
2023/12/21 15:19:24;;;;;;;;;;;;;;;;;;6187620;23;20345;-89
2023/12/21 15:21:50;;;;;;;;;;;;;;;;;;6187669;23;19908;-89
2023/12/21 15:24:15;;;;;;;;;;;;;;;;;;6188187;23;19981;-89
2023/12/21 15:26:41;;;;;;;;;;;;;;;;;;6186647;23;20288;-89
2023/12/21 15:29:08;;;;;;;;;;;;;;;;;;6186286;23;20026;-90
2023/12/21 15:31:35;;;;;;;;;;;;;;;;;;6186699;23;20315;-89
2023/12/21 15:34:01;;;;;;;;;;;;;;;;;;6187145;23;20245;-90
2023/12/21 15:36:26;;;;;;;;;;;;;;;;;;6187188;23;20329;-90
2023/12/21 15:38:52;;;;;;;;;;;;;;;;;;6187318;23;19908;-89
2023/12/21 15:41:18;;;;;;;;;;;;;;;;;;6185693;23;19911;-89
2023/12/21 15:43:44;;;;;;;;;;;;;;;;;;6186854;23;20265;-89
2023/12/21 15:46:10;;;;;;;;;;;;;;;;;;6186773;23;19926;-89
2023/12/21 15:48:36;;;;;;;;;;;;;;;;;;6186835;23;19911;-89
2023/12/21 15:51:02;;;;;;;;;;;;;;;;;;6187239;23;19936;-89
2023/12/21 15:53:28;;;;;;;;;;;;;;;;;;6187149;23;19931;-90
2023/12/21 15:55:54;;;;;;;;;;;;;;;;;;6187825;23;19950;-89
2023/12/21 15:58:20;;;;;;;;;;;;;;;;;;6187354;23;19908;-89
2023/12/21 16:00:50;;;;;;;;;;;;;;;;;;6213346;23;19939;-90
2023/12/21 16:03:15;;;;;;;;;;;;;;;;;;6186209;23;19908;-90
2023/12/21 16:05:41;;;;;;;;;;;;;;;;;;6188197;23;19908;-91
2023/12/21 16:08:09;;;;;;;;;;;;;;;;;;6185540;23;19961;-91
2023/12/21 16:10:35;;;;;;;;;;;;;;;;;;6186894;23;20052;-91
2023/12/21 16:13:01;;;;;;;;;;;;;;;;;;6186706;23;20334;-91
2023/12/21 16:15:27;;;;;;;;;;;;;;;;;;6187826;23;19908;-91
2023/12/21 16:17:54;;;;;;;;;;;;;;;;;;6186604;23;19927;-91
2023/12/21 16:20:20;;;;;;;;;;;;;;;;;;6188360;23;19904;-90
2023/12/21 16:22:45;;;;;;;;;;;;;;;;;;6188460;23;19907;-91
2023/12/21 16:25:11;;;;;;;;;;;;;;;;;;6187305;23;19904;-92
2023/12/21 16:27:38;;;;;;;;;;;;;;;;;;6187316;23;19912;-91
2023/12/21 16:30:04;;;;;;;;;;;;;;;;;;6187101;23;20304;-91
2023/12/21 16:32:30;;;;;;;;;;;;;;;;;;6186349;23;20291;-91
2023/12/21 16:34:56;;;;;;;;;;;;;;;;;;6187559;23;19931;-91
2023/12/21 16:37:22;;;;;;;;;;;;;;;;;;6187626;23;20585;-91
2023/12/21 16:39:49;;;;;;;;;;;;;;;;;;6187692;23;20284;-92
2023/12/21 16:42:15;;;;;;;;;;;;;;;;;;6185234;23;19908;-90
2023/12/21 16:44:41;;;;;;;;;;;;;;;;;;6185470;23;20223;-90
2023/12/21 16:47:07;;;;;;;;;;;;;;;;;;6186694;23;19912;-90
2023/12/21 16:49:33;;;;;;;;;;;;;;;;;;6186592;23;19995;-90
2023/12/21 16:52:02;;;;;;;;;;;;;;;;;;6219430;22;19962;-90
2023/12/21 16:54:28;;;;;;;;;;;;;;;;;;6246802;22;20935;-90
2023/12/21 16:56:58;;;;;;;;;;;;;;;;;;6246556;22;19934;-91
2023/12/21 16:59:24;;;;;;;;;;;;;;;;;;6246916;22;19914;-91
2023/12/21 17:01:50;;;;;;;;;;;;;;;;;;6247609;22;20248;-90
2023/12/21 17:04:16;;;;;;;;;;;;;;;;;;6247669;22;19934;-90
2023/12/21 17:06:42;;;;;;;;;;;;;;;;;;6247657;22;19972;-91
2023/12/21 17:09:08;;;;;;;;;;;;;;;;;;6247267;22;19942;-91
2023/12/21 17:11:34;;;;;;;;;;;;;;;;;;6246268;22;19907;-91
2023/12/21 17:14:00;;;;;;;;;;;;;;;;;;6245909;22;19931;-91